Search for airport 
image banner adimage banner adimage banner ad
image banner ad

0CL5 - The Atrium

Located in Irvine, United States

ICAO - 0CL5, IATA -

Data provided by Airmate  

General information

Coordinates: N33°40'14" W117°51'28"
Elevation is 46 feet MSL.
Magnetic variation is 14° East
View others Airports in California

Operational data

Special qualification required
Current time UTC:
Current local time:
METAR: KSNA 270353Z VRB04KT 10SM OVC018 22/17 A2995 RMK AO2 SLP142 T02170167
TAF: KSNA 262335Z 2700/2724 22009KT P6SM OVC020 FM270400 24003KT P6SM OVC015 FM271300 00000KT 6SM HZ OVC007 FM271900 23008KT P6SM SCT015
View NOTAMs / SUP AIP / TFR affecting this airport [VIEW]
Communications frequencies: [VIEW]

Runways:

Airport contact information

Address: Irvine United States

Satellite view of 0CL5